Fairview, Pennsylvania
Current Conditions -  °F | °C
As of 8:51 AM on Monday 22 Dec 2014 (Local Time) from KERI Reporting Station
Clear Clear  
Wind Chill: 17°   Ceiling: Unl
Heat Index: 29°   Visibility: 10mi
Dew Point: 21°   Wind: 16mph
Humidity: 72%   Direction: 150°SSE
Pressure: 30.13"   Gusts: NA
Location:  42.03°N, 80.25°W
Report Text: KERI 221351Z 15014KT 10SM CLR M02/M06 A3013 RMK AO2 SLP212 T10171061
Loading
Personal Weather Stations






























Interactive Weather Map New forecast layout! Learn more

10-Day Weather Forecast

Advertisements
Track Severe Weather on mobile